sensor_id;sensor_type;location;lat;lon;timestamp;pressure;altitude;pressure_sealevel;temperature;humidity
37068;BME280;22982;42.848;25.468;2023-02-05T00:03:43;96107.19;;;-0.57;100.00
37068;BME280;22982;42.848;25.468;2023-02-05T00:08:46;96096.34;;;-0.75;100.00
37068;BME280;22982;42.848;25.468;2023-02-05T00:13:48;96132.44;;;-0.78;100.00
37068;BME280;22982;42.848;25.468;2023-02-05T00:18:51;96132.34;;;-0.72;100.00
37068;BME280;22982;42.848;25.468;2023-02-05T00:23:54;96141.69;;;-0.66;100.00
37068;BME280;22982;42.848;25.468;2023-02-05T00:28:56;96155.72;;;-0.83;100.00
37068;BME280;22982;42.848;25.468;2023-02-05T00:33:58;96137.16;;;-1.02;100.00
37068;BME280;22982;42.848;25.468;2023-02-05T00:53:08;96164.66;;;-0.54;100.00
37068;BME280;22982;42.848;25.468;2023-02-05T00:58:11;96166.44;;;-1.09;100.00
37068;BME280;22982;42.848;25.468;2023-02-05T01:03:13;96210.00;;;-0.97;100.00
37068;BME280;22982;42.848;25.468;2023-02-05T01:08:16;96201.03;;;-1.28;100.00
37068;BME280;22982;42.848;25.468;2023-02-05T01:13:18;96207.88;;;-1.27;100.00
37068;BME280;22982;42.848;25.468;2023-02-05T01:18:20;96216.50;;;-1.30;100.00
37068;BME280;22982;42.848;25.468;2023-02-05T01:23:22;96195.88;;;-1.28;100.00
37068;BME280;22982;42.848;25.468;2023-02-05T01:28:25;96231.53;;;-1.02;100.00
37068;BME280;22982;42.848;25.468;2023-02-05T01:33:27;96232.50;;;-1.09;100.00
37068;BME280;22982;42.848;25.468;2023-02-05T01:38:30;96238.31;;;-0.97;100.00
37068;BME280;22982;42.848;25.468;2023-02-05T01:43:32;96257.97;;;-0.94;100.00
37068;BME280;22982;42.848;25.468;2023-02-05T01:48:39;96237.53;;;-1.03;100.00
37068;BME280;22982;42.848;25.468;2023-02-05T01:53:44;96218.50;;;-1.52;100.00
37068;BME280;22982;42.848;25.468;2023-02-05T01:58:54;96251.75;;;-1.37;100.00
37068;BME280;22982;42.848;25.468;2023-02-05T02:03:59;96272.31;;;-1.35;100.00
37068;BME280;22982;42.848;25.468;2023-02-05T02:09:06;96251.19;;;-1.57;100.00
37068;BME280;22982;42.848;25.468;2023-02-05T02:14:10;96263.91;;;-1.46;100.00
37068;BME280;22982;42.848;25.468;2023-02-05T02:19:20;96248.66;;;-1.62;100.00
37068;BME280;22982;42.848;25.468;2023-02-05T02:31:11;96319.72;;;-1.56;100.00
37068;BME280;22982;42.848;25.468;2023-02-05T02:36:21;96308.06;;;-1.88;100.00
37068;BME280;22982;42.848;25.468;2023-02-05T02:41:32;96315.03;;;-1.96;100.00
37068;BME280;22982;42.848;25.468;2023-02-05T02:46:46;96331.44;;;-2.09;100.00
37068;BME280;22982;42.848;25.468;2023-02-05T02:51:50;96340.03;;;-2.15;100.00
37068;BME280;22982;42.848;25.468;2023-02-05T02:56:54;96340.09;;;-2.18;100.00
37068;BME280;22982;42.848;25.468;2023-02-05T03:02:00;96352.97;;;-2.23;100.00
37068;BME280;22982;42.848;25.468;2023-02-05T03:07:32;96369.38;;;-2.41;100.00
37068;BME280;22982;42.848;25.468;2023-02-05T03:12:38;96348.22;;;-2.75;100.00
37068;BME280;22982;42.848;25.468;2023-02-05T03:17:41;96363.56;;;-2.66;100.00
37068;BME280;22982;42.848;25.468;2023-02-05T03:22:44;96361.06;;;-2.74;100.00
37068;BME280;22982;42.848;25.468;2023-02-05T03:27:48;96361.88;;;-2.70;100.00
37068;BME280;22982;42.848;25.468;2023-02-05T03:38:54;96423.31;;;-2.42;100.00
37068;BME280;22982;42.848;25.468;2023-02-05T03:44:17;96412.38;;;-2.74;100.00
37068;BME280;22982;42.848;25.468;2023-02-05T03:49:52;96421.00;;;-2.84;100.00
37068;BME280;22982;42.848;25.468;2023-02-05T04:00:07;96439.78;;;-2.79;100.00
37068;BME280;22982;42.848;25.468;2023-02-05T04:05:19;96435.63;;;-3.06;100.00
37068;BME280;22982;42.848;25.468;2023-02-05T04:10:26;96456.16;;;-3.03;100.00
37068;BME280;22982;42.848;25.468;2023-02-05T04:15:32;96468.97;;;-3.04;100.00
37068;BME280;22982;42.848;25.468;2023-02-05T04:20:38;96464.81;;;-3.35;100.00
37068;BME280;22982;42.848;25.468;2023-02-05T04:25:42;96445.22;;;-3.56;100.00
37068;BME280;22982;42.848;25.468;2023-02-05T04:30:49;96471.69;;;-3.61;100.00
37068;BME280;22982;42.848;25.468;2023-02-05T04:35:57;96487.06;;;-3.61;100.00
37068;BME280;22982;42.848;25.468;2023-02-05T04:46:52;96522.94;;;-3.58;100.00
37068;BME280;22982;42.848;25.468;2023-02-05T04:51:54;96510.97;;;-3.44;100.00
37068;BME280;22982;42.848;25.468;2023-02-05T04:56:57;96534.91;;;-3.36;100.00
37068;BME280;22982;42.848;25.468;2023-02-05T05:01:59;96533.22;;;-3.43;100.00
37068;BME280;22982;42.848;25.468;2023-02-05T05:07:01;96545.16;;;-3.48;100.00
37068;BME280;22982;42.848;25.468;2023-02-05T05:12:05;96542.59;;;-3.62;100.00
37068;BME280;22982;42.848;25.468;2023-02-05T05:17:07;96560.56;;;-3.60;100.00
37068;BME280;22982;42.848;25.468;2023-02-05T05:22:09;96563.13;;;-3.60;100.00
37068;BME280;22982;42.848;25.468;2023-02-05T05:27:11;96546.03;;;-3.95;100.00
37068;BME280;22982;42.848;25.468;2023-02-05T05:32:14;96588.72;;;-3.93;100.00
37068;BME280;22982;42.848;25.468;2023-02-05T05:37:16;96587.00;;;-3.98;100.00
37068;BME280;22982;42.848;25.468;2023-02-05T05:42:18;96567.31;;;-4.21;100.00
37068;BME280;22982;42.848;25.468;2023-02-05T05:47:39;96614.34;;;-3.99;100.00
37068;BME280;22982;42.848;25.468;2023-02-05T05:52:41;96614.28;;;-4.11;100.00
37068;BME280;22982;42.848;25.468;2023-02-05T05:57:43;96640.81;;;-3.89;100.00
37068;BME280;22982;42.848;25.468;2023-02-05T06:02:46;96627.97;;;-3.92;100.00
37068;BME280;22982;42.848;25.468;2023-02-05T06:07:48;96627.09;;;-4.13;100.00
37068;BME280;22982;42.848;25.468;2023-02-05T06:12:50;96656.97;;;-4.07;100.00
37068;BME280;22982;42.848;25.468;2023-02-05T06:17:56;96633.94;;;-4.06;100.00
37068;BME280;22982;42.848;25.468;2023-02-05T06:22:58;96661.25;;;-4.11;100.00
37068;BME280;22982;42.848;25.468;2023-02-05T06:28:01;96660.34;;;-4.24;100.00
37068;BME280;22982;42.848;25.468;2023-02-05T06:33:03;96652.59;;;-4.37;100.00
37068;BME280;22982;42.848;25.468;2023-02-05T06:38:06;96661.22;;;-4.20;100.00
37068;BME280;22982;42.848;25.468;2023-02-05T06:43:09;96685.13;;;-4.18;100.00
37068;BME280;22982;42.848;25.468;2023-02-05T06:48:14;96692.84;;;-4.07;100.00
37068;BME280;22982;42.848;25.468;2023-02-05T06:53:30;96639.84;;;-4.30;100.00
37068;BME280;22982;42.848;25.468;2023-02-05T06:58:32;96680.91;;;-4.04;100.00
37068;BME280;22982;42.848;25.468;2023-02-05T07:03:35;96709.16;;;-3.76;100.00
37068;BME280;22982;42.848;25.468;2023-02-05T07:08:37;96685.25;;;-3.69;100.00
37068;BME280;22982;42.848;25.468;2023-02-05T07:13:39;96704.13;;;-3.45;100.00
37068;BME280;22982;42.848;25.468;2023-02-05T07:18:42;96714.38;;;-3.23;100.00
37068;BME280;22982;42.848;25.468;2023-02-05T07:23:44;96720.41;;;-3.21;100.00
37068;BME280;22982;42.848;25.468;2023-02-05T07:28:46;96739.16;;;-3.27;100.00
37068;BME280;22982;42.848;25.468;2023-02-05T07:33:49;96734.91;;;-3.27;100.00
37068;BME280;22982;42.848;25.468;2023-02-05T07:38:51;96716.03;;;-3.56;98.11
37068;BME280;22982;42.848;25.468;2023-02-05T07:43:53;96749.44;;;-3.30;99.71
37068;BME280;22982;42.848;25.468;2023-02-05T07:48:56;96757.16;;;-3.22;100.00
37068;BME280;22982;42.848;25.468;2023-02-05T07:53:58;96755.47;;;-3.08;96.71
37068;BME280;22982;42.848;25.468;2023-02-05T07:59:00;96743.50;;;-3.04;95.76
37068;BME280;22982;42.848;25.468;2023-02-05T08:04:03;96747.75;;;-3.14;95.07
37068;BME280;22982;42.848;25.468;2023-02-05T08:09:05;96743.50;;;-3.00;95.69
37068;BME280;22982;42.848;25.468;2023-02-05T08:14:08;96758.88;;;-3.03;94.89
37068;BME280;22982;42.848;25.468;2023-02-05T08:19:14;96788.81;;;-3.08;95.99
37068;BME280;22982;42.848;25.468;2023-02-05T08:24:17;96786.25;;;-3.00;94.90
37068;BME280;22982;42.848;25.468;2023-02-05T08:29:19;96777.63;;;-3.41;97.30
37068;BME280;22982;42.848;25.468;2023-02-05T08:34:22;96799.91;;;-3.06;97.38
37068;BME280;22982;42.848;25.468;2023-02-05T08:39:24;96821.31;;;-2.85;95.90
37068;BME280;22982;42.848;25.468;2023-02-05T08:44:27;96783.69;;;-2.82;93.17
37068;BME280;22982;42.848;25.468;2023-02-05T08:49:30;96801.69;;;-2.43;91.09
37068;BME280;22982;42.848;25.468;2023-02-05T08:54:32;96819.56;;;-1.97;88.78
37068;BME280;22982;42.848;25.468;2023-02-05T08:59:34;96810.19;;;-2.06;87.24
37068;BME280;22982;42.848;25.468;2023-02-05T09:04:37;96823.03;;;-2.15;86.13
37068;BME280;22982;42.848;25.468;2023-02-05T09:09:40;96809.25;;;-1.88;84.74
37068;BME280;22982;42.848;25.468;2023-02-05T09:14:45;96781.84;;;-1.83;83.82
37068;BME280;22982;42.848;25.468;2023-02-05T09:19:47;96801.38;;;-1.39;83.99
37068;BME280;22982;42.848;25.468;2023-02-05T09:24:50;96825.13;;;-0.90;81.97
37068;BME280;22982;42.848;25.468;2023-02-05T09:29:52;96802.56;;;-0.54;80.61
37068;BME280;22982;42.848;25.468;2023-02-05T09:34:54;96820.84;;;-0.93;79.36
37068;BME280;22982;42.848;25.468;2023-02-05T09:39:56;96829.75;;;-1.59;83.13
37068;BME280;22982;42.848;25.468;2023-02-05T09:50:43;96804.09;;;-1.76;87.76
37068;BME280;22982;42.848;25.468;2023-02-05T09:55:46;96808.34;;;-1.68;83.92
37068;BME280;22982;42.848;25.468;2023-02-05T10:00:53;96819.59;;;-2.02;86.78
37068;BME280;22982;42.848;25.468;2023-02-05T10:06:11;96770.84;;;-2.57;87.88
37068;BME280;22982;42.848;25.468;2023-02-05T10:11:36;96825.59;;;-2.04;91.36
37068;BME280;22982;42.848;25.468;2023-02-05T10:17:00;96781.97;;;-2.41;92.23
37068;BME280;22982;42.848;25.468;2023-02-05T10:22:24;96810.22;;;-2.44;93.91
37068;BME280;22982;42.848;25.468;2023-02-05T10:27:57;96793.13;;;-2.59;94.50
37068;BME280;22982;42.848;25.468;2023-02-05T10:33:24;96795.66;;;-2.32;93.29
37068;BME280;22982;42.848;25.468;2023-02-05T10:38:34;96792.25;;;-2.29;93.48
37068;BME280;22982;42.848;25.468;2023-02-05T10:48:56;96782.81;;;-2.25;91.86
37068;BME280;22982;42.848;25.468;2023-02-05T10:54:00;96790.50;;;-2.13;89.75
37068;BME280;22982;42.848;25.468;2023-02-05T10:59:03;96787.06;;;-2.15;91.01
37068;BME280;22982;42.848;25.468;2023-02-05T11:04:12;96792.22;;;-2.21;90.43
37068;BME280;22982;42.848;25.468;2023-02-05T11:14:39;96763.09;;;-2.28;90.96
37068;BME280;22982;42.848;25.468;2023-02-05T11:19:52;96794.81;;;-2.51;90.54
37068;BME280;22982;42.848;25.468;2023-02-05T11:25:09;96805.06;;;-2.34;91.69
37068;BME280;22982;42.848;25.468;2023-02-05T11:30:28;96779.41;;;-2.57;89.80
37068;BME280;22982;42.848;25.468;2023-02-05T11:36:06;96769.91;;;-1.96;87.99
37068;BME280;22982;42.848;25.468;2023-02-05T11:41:35;96797.94;;;-1.38;86.86
37068;BME280;22982;42.848;25.468;2023-02-05T11:46:49;96781.69;;;-1.46;88.39
37068;BME280;22982;42.848;25.468;2023-02-05T11:51:58;96763.78;;;-1.64;89.63
37068;BME280;22982;42.848;25.468;2023-02-05T12:07:38;96775.09;;;-2.13;92.07
37068;BME280;22982;42.848;25.468;2023-02-05T12:39:38;96798.03;;;-1.53;88.45
37068;BME280;22982;42.848;25.468;2023-02-05T12:50:53;96800.44;;;-1.21;84.51
37068;BME280;22982;42.848;25.468;2023-02-05T13:01:13;96789.38;;;-1.38;82.14
37068;BME280;22982;42.848;25.468;2023-02-05T13:06:17;96818.50;;;-1.38;80.94
37068;BME280;22982;42.848;25.468;2023-02-05T13:11:28;96774.13;;;-1.84;82.77
37068;BME280;22982;42.848;25.468;2023-02-05T13:16:42;96807.56;;;-1.92;85.67
37068;BME280;22982;42.848;25.468;2023-02-05T13:21:45;96793.09;;;-2.25;86.15
37068;BME280;22982;42.848;25.468;2023-02-05T13:27:40;96829.88;;;-2.03;87.70
37068;BME280;22982;42.848;25.468;2023-02-05T13:32:57;96820.47;;;-2.26;87.42
37068;BME280;22982;42.848;25.468;2023-02-05T13:38:14;96835.03;;;-2.36;89.12
37068;BME280;22982;42.848;25.468;2023-02-05T13:59:41;96813.66;;;-2.79;91.05
37068;BME280;22982;42.848;25.468;2023-02-05T14:04:52;96809.34;;;-3.00;90.23
37068;BME280;22982;42.848;25.468;2023-02-05T14:10:00;96793.09;;;-3.01;90.26
37068;BME280;22982;42.848;25.468;2023-02-05T14:31:43;96806.03;;;-0.59;100.00
37068;BME280;22982;42.848;25.468;2023-02-05T14:36:46;96785.06;;;-1.31;93.57
37068;BME280;22982;42.848;25.468;2023-02-05T14:41:52;96791.13;;;-1.45;92.04
37068;BME280;22982;42.848;25.468;2023-02-05T14:47:05;96845.97;;;-1.40;96.15
37068;BME280;22982;42.848;25.468;2023-02-05T14:52:27;96828.97;;;-1.90;97.16
37068;BME280;22982;42.848;25.468;2023-02-05T15:19:45;96881.38;;;0.63;100.00
37068;BME280;22982;42.848;25.468;2023-02-05T15:24:52;96850.97;;;-1.09;100.00
37068;BME280;22982;42.848;25.468;2023-02-05T15:29:55;96873.44;;;-0.03;100.00
37068;BME280;22982;42.848;25.468;2023-02-05T15:35:10;96887.25;;;0.75;100.00
37068;BME280;22982;42.848;25.468;2023-02-05T15:40:22;96894.63;;;0.29;100.00
37068;BME280;22982;42.848;25.468;2023-02-05T15:45:28;96923.59;;;0.54;100.00
37068;BME280;22982;42.848;25.468;2023-02-05T15:56:04;96880.63;;;-0.43;100.00
37068;BME280;22982;42.848;25.468;2023-02-05T16:01:08;96876.00;;;-1.43;100.00
37068;BME280;22982;42.848;25.468;2023-02-05T16:06:18;96918.09;;;-2.47;100.00
37068;BME280;22982;42.848;25.468;2023-02-05T16:11:32;96954.78;;;-2.96;100.00
37068;BME280;22982;42.848;25.468;2023-02-05T16:16:36;96930.50;;;-3.58;100.00
37068;BME280;22982;42.848;25.468;2023-02-05T16:21:45;96934.81;;;-3.57;100.00
37068;BME280;22982;42.848;25.468;2023-02-05T16:41:38;96922.88;;;-3.52;100.00
37068;BME280;22982;42.848;25.468;2023-02-05T16:46:41;96934.75;;;-3.65;100.00
37068;BME280;22982;42.848;25.468;2023-02-05T16:57:13;96910.72;;;-3.84;100.00
37068;BME280;22982;42.848;25.468;2023-02-05T17:02:31;96946.53;;;-3.92;100.00
37068;BME280;22982;42.848;25.468;2023-02-05T17:07:35;96941.34;;;-3.98;100.00
37068;BME280;22982;42.848;25.468;2023-02-05T17:12:44;96941.28;;;-4.09;100.00
37068;BME280;22982;42.848;25.468;2023-02-05T17:17:53;96943.84;;;-4.07;100.00
37068;BME280;22982;42.848;25.468;2023-02-05T17:28:05;96914.78;;;-4.15;100.00
37068;BME280;22982;42.848;25.468;2023-02-05T17:33:09;96912.09;;;-4.29;100.00
37068;BME280;22982;42.848;25.468;2023-02-05T17:38:16;96929.19;;;-4.25;100.00
37068;BME280;22982;42.848;25.468;2023-02-05T17:43:39;96944.59;;;-4.20;100.00
37068;BME280;22982;42.848;25.468;2023-02-05T17:48:41;96907.63;;;-4.53;100.00
37068;BME280;22982;42.848;25.468;2023-02-05T17:53:46;96904.97;;;-4.61;100.00
37068;BME280;22982;42.848;25.468;2023-02-05T17:58:57;96905.81;;;-4.65;100.00
37068;BME280;22982;42.848;25.468;2023-02-05T18:04:02;96956.50;;;-4.26;100.00
37068;BME280;22982;42.848;25.468;2023-02-05T18:09:05;96899.75;;;-4.73;100.00
37068;BME280;22982;42.848;25.468;2023-02-05T18:14:07;96919.47;;;-4.63;100.00
37068;BME280;22982;42.848;25.468;2023-02-05T18:19:10;96925.44;;;-4.61;100.00
37068;BME280;22982;42.848;25.468;2023-02-05T18:24:15;96922.75;;;-4.73;100.00
37068;BME280;22982;42.848;25.468;2023-02-05T18:29:18;96917.75;;;-4.64;100.00
37068;BME280;22982;42.848;25.468;2023-02-05T18:34:22;96936.50;;;-4.65;100.00
37068;BME280;22982;42.848;25.468;2023-02-05T18:39:25;96901.34;;;-4.85;100.00
37068;BME280;22982;42.848;25.468;2023-02-05T18:44:31;96920.16;;;-4.79;100.00
37068;BME280;22982;42.848;25.468;2023-02-05T18:49:33;96947.53;;;-4.72;100.00
37068;BME280;22982;42.848;25.468;2023-02-05T18:54:36;96936.28;;;-4.87;100.00
37068;BME280;22982;42.848;25.468;2023-02-05T18:59:38;96968.16;;;-4.55;100.00
37068;BME280;22982;42.848;25.468;2023-02-05T19:04:41;96973.28;;;-4.57;100.00
37068;BME280;22982;42.848;25.468;2023-02-05T19:09:45;96953.56;;;-4.63;100.00
37068;BME280;22982;42.848;25.468;2023-02-05T19:14:47;96983.63;;;-4.48;100.00
37068;BME280;22982;42.848;25.468;2023-02-05T19:19:50;96968.13;;;-4.60;100.00
37068;BME280;22982;42.848;25.468;2023-02-05T19:24:53;96934.59;;;-4.85;100.00
37068;BME280;22982;42.848;25.468;2023-02-05T19:30:09;96905.16;;;-5.27;100.00
37068;BME280;22982;42.848;25.468;2023-02-05T19:35:45;96935.97;;;-5.14;100.00
37068;BME280;22982;42.848;25.468;2023-02-05T19:40:50;96969.44;;;-4.96;100.00
37068;BME280;22982;42.848;25.468;2023-02-05T19:45:52;96966.97;;;-4.88;100.00
37068;BME280;22982;42.848;25.468;2023-02-05T19:51:02;96957.53;;;-4.94;100.00
37068;BME280;22982;42.848;25.468;2023-02-05T20:01:20;96960.09;;;-4.92;100.00
37068;BME280;22982;42.848;25.468;2023-02-05T20:06:27;96960.06;;;-4.95;100.00
37068;BME280;22982;42.848;25.468;2023-02-05T20:11:34;96989.50;;;-4.56;100.00
37068;BME280;22982;42.848;25.468;2023-02-05T20:16:37;96936.13;;;-5.01;100.00
37068;BME280;22982;42.848;25.468;2023-02-05T20:21:42;96962.72;;;-4.88;100.00
37068;BME280;22982;42.848;25.468;2023-02-05T20:26:45;97017.56;;;-4.64;100.00
37068;BME280;22982;42.848;25.468;2023-02-05T20:31:57;96962.66;;;-4.92;100.00
37068;BME280;22982;42.848;25.468;2023-02-05T20:37:05;96990.63;;;-5.06;100.00
37068;BME280;22982;42.848;25.468;2023-02-05T20:42:24;96968.34;;;-5.15;100.00
37068;BME280;22982;42.848;25.468;2023-02-05T20:47:27;97001.88;;;-4.95;100.00
37068;BME280;22982;42.848;25.468;2023-02-05T20:52:29;97017.97;;;-4.99;100.00
37068;BME280;22982;42.848;25.468;2023-02-05T20:57:32;97014.63;;;-4.96;100.00
37068;BME280;22982;42.848;25.468;2023-02-05T21:02:34;96974.25;;;-5.21;100.00
37068;BME280;22982;42.848;25.468;2023-02-05T21:07:39;96990.38;;;-5.25;100.00
37068;BME280;22982;42.848;25.468;2023-02-05T21:12:42;97002.38;;;-5.19;100.00
37068;BME280;22982;42.848;25.468;2023-02-05T21:17:44;97014.84;;;-5.42;100.00
37068;BME280;22982;42.848;25.468;2023-02-05T21:22:46;97029.44;;;-5.36;100.00
37068;BME280;22982;42.848;25.468;2023-02-05T21:27:48;97022.53;;;-5.41;100.00
37068;BME280;22982;42.848;25.468;2023-02-05T21:32:51;97041.38;;;-5.35;100.00
37068;BME280;22982;42.848;25.468;2023-02-05T21:37:54;97016.63;;;-5.38;100.00
37068;BME280;22982;42.848;25.468;2023-02-05T21:42:56;97011.56;;;-5.36;100.00
37068;BME280;22982;42.848;25.468;2023-02-05T21:47:59;97014.97;;;-5.36;100.00
37068;BME280;22982;42.848;25.468;2023-02-05T21:53:01;97005.75;;;-5.23;100.00
37068;BME280;22982;42.848;25.468;2023-02-05T21:58:03;97018.59;;;-5.17;100.00
37068;BME280;22982;42.848;25.468;2023-02-05T22:03:05;97046.22;;;-4.90;100.00
37068;BME280;22982;42.848;25.468;2023-02-05T22:08:08;97058.41;;;-4.70;100.00
37068;BME280;22982;42.848;25.468;2023-02-05T22:13:12;97030.88;;;-4.90;100.00
37068;BME280;22982;42.848;25.468;2023-02-05T22:18:14;97018.69;;;-5.12;100.00
37068;BME280;22982;42.848;25.468;2023-02-05T22:23:19;97060.00;;;-4.82;100.00
37068;BME280;22982;42.848;25.468;2023-02-05T22:28:22;97037.78;;;-4.86;100.00
37068;BME280;22982;42.848;25.468;2023-02-05T22:33:24;97051.50;;;-4.77;100.00
37068;BME280;22982;42.848;25.468;2023-02-05T22:38:28;97029.94;;;-4.98;100.00
37068;BME280;22982;42.848;25.468;2023-02-05T22:43:31;97062.59;;;-4.80;100.00
37068;BME280;22982;42.848;25.468;2023-02-05T22:48:38;97029.19;;;-4.91;100.00
37068;BME280;22982;42.848;25.468;2023-02-05T22:53:41;97086.63;;;-4.66;100.00
37068;BME280;22982;42.848;25.468;2023-02-05T22:58:45;97074.63;;;-4.71;100.00
37068;BME280;22982;42.848;25.468;2023-02-05T23:03:49;97060.53;;;-5.04;100.00
37068;BME280;22982;42.848;25.468;2023-02-05T23:08:55;97070.06;;;-4.94;100.00
37068;BME280;22982;42.848;25.468;2023-02-05T23:13:59;97077.72;;;-4.95;100.00
37068;BME280;22982;42.848;25.468;2023-02-05T23:19:05;97093.22;;;-4.83;100.00
37068;BME280;22982;42.848;25.468;2023-02-05T23:24:08;97080.25;;;-4.97;100.00
37068;BME280;22982;42.848;25.468;2023-02-05T23:29:13;97076.72;;;-5.07;100.00
37068;BME280;22982;42.848;25.468;2023-02-05T23:34:16;97078.50;;;-5.01;100.00
37068;BME280;22982;42.848;25.468;2023-02-05T23:39:19;97104.19;;;-4.95;100.00
37068;BME280;22982;42.848;25.468;2023-02-05T23:44:21;97107.47;;;-5.02;100.00
37068;BME280;22982;42.848;25.468;2023-02-05T23:49:24;97093.63;;;-5.16;100.00
37068;BME280;22982;42.848;25.468;2023-02-05T23:54:26;97093.53;;;-5.23;100.00
37068;BME280;22982;42.848;25.468;2023-02-05T23:59:28;97091.66;;;-5.34;100.00
